Rio Grande, Ohio
Current Conditions -  °F | °C
As of 3:55 PM on Tuesday 27 Jan 2015 (Local Time) from K3I2 Reporting Station
Overcast Overcast  
Wind Chill: 22°   Ceiling: 2900
Heat Index: 28°   Visibility: 10mi
Dew Point: 19°   Wind: 6mph
Humidity: 69%   Direction: 300°WNW
Pressure: 30.09"   Gusts: NA
Location:  38.88°N, 82.38°W
Report Text: K3I2 272055Z AUTO 30005KT 10SM OVC029 M02/M07 A3009 RMK AO2
Loading
Personal Weather Stations






























Interactive Weather Map New forecast layout! Learn more

10-Day Weather Forecast

Advertisements
Track Severe Weather on mobile